Погода Уэст-Голливудна неделю

Калифорния, США

01 - 07 сентября
  • 01сентября
    Сегодня
    +16°
    +28°
    Ясно и безоблачно
    ВремяПогодаТемператураВлажностьДавлениеВетер, м/сВероятность осадков
    02:00Ясно и безоблачно+19°C86 %754 мм0.5 м/с2 %
    05:00Ясно и безоблачно+16°C92 %753 мм0.1 м/с2 %
    08:00Ясно и безоблачно+18°C89 %754 мм0.3 м/с2 %
    11:00Ясно и безоблачно+25°C46 %754 мм1.6 м/с2 %
    14:00Ясно и безоблачно+27°C37 %754 мм3.1 м/с2 %
    17:00Ясно и безоблачно+26°C35 %752 мм2.4 м/с2 %
    20:00Ясно и безоблачно+21°C54 %753 мм1.4 м/с2 %
    23:00Ясно и безоблачно+19°C75 %754 мм0.8 м/с2 %
  • 02сентября
    Среда
    +17°
    +29°
    Ясно и безоблачно
    ВремяПогодаТемператураВлажностьДавлениеВетер, м/сВероятность осадков
    02:00Ясно и безоблачно+19°C85 %754 мм0.7 м/с2 %
    05:00Ясно и безоблачно+17°C92 %754 мм0.5 м/с2 %
    08:00Ясно и безоблачно+18°C82 %754 мм0.3 м/с2 %
    11:00Ясно и безоблачно+25°C47 %755 мм1.7 м/с2 %
    14:00Ясно и безоблачно+28°C36 %754 мм2.8 м/с2 %
    17:00Ясно и безоблачно+27°C31 %752 мм2.8 м/с2 %
    20:00Ясно и безоблачно+22°C48 %752 мм1.0 м/с2 %
    23:00Ясно и безоблачно+21°C60 %753 мм0.8 м/с2 %
  • 03сентября
    Четверг
    +17°
    +29°
    Ясно и безоблачно
    ВремяПогодаТемператураВлажностьДавлениеВетер, м/сВероятность осадков
    02:00Ясно и безоблачно+20°C74 %753 мм0.8 м/с2 %
    05:00Ясно и безоблачно+18°C89 %753 мм0.2 м/с2 %
    08:00Ясно и безоблачно+20°C81 %753 мм0.6 м/с2 %
    11:00Ясно и безоблачно+25°C44 %753 мм1.8 м/с2 %
    14:00Ясно и безоблачно+28°C41 %751 мм2.9 м/с2 %
    17:00Ясно и безоблачно+26°C53 %751 мм3.0 м/с2 %
    20:00Ясно и безоблачно+22°C67 %751 мм1.5 м/с2 %
    23:00Ясно и безоблачно+20°C82 %752 мм1.2 м/с2 %
  • 04сентября
    Пятница
    +18°
    +29°
    Ясно и безоблачно
    ВремяПогодаТемператураВлажностьДавлениеВетер, м/сВероятность осадков
    02:00Ясно и безоблачно+19°C90 %752 мм0.2 м/с2 %
    05:00Ясно и безоблачно+18°C96 %752 мм0.6 м/с2 %
    08:00Ясно и безоблачно+20°C82 %752 мм0.3 м/с2 %
    11:00Ясно и безоблачно+25°C49 %753 мм1.6 м/с2 %
    14:00Ясно и безоблачно+29°C39 %751 мм2.7 м/с2 %
    17:00Ясно и безоблачно+27°C41 %751 мм2.8 м/с2 %
    20:00Ясно и безоблачно+22°C62 %751 мм1.2 м/с2 %
    23:00Ясно и безоблачно+20°C79 %752 мм0.9 м/с2 %
  • 05сентября
    Суббота
    +21°
    +31°
    Ясно и безоблачно
    ВремяПогодаТемператураВлажностьДавлениеВетер, м/сВероятность осадков
    02:00Ясно и безоблачно+20°C81 %752 мм0.4 м/с2 %
    05:00Ясно и безоблачно+19°C76 %752 мм0.4 м/с5 %
    08:00Ясно и безоблачно+21°C48 %753 мм0.8 м/с9 %
    11:00Ясно и безоблачно+27°C29 %753 мм1.0 м/с13 %
    14:00Ясно и безоблачно+31°C25 %752 мм2.4 м/с20 %
    17:00Ясно и безоблачно+29°C24 %751 мм2.6 м/с14 %
    20:00Ясно и безоблачно+24°C43 %751 мм1.0 м/с15 %
    23:00Ясно и безоблачно+22°C61 %752 мм0.7 м/с20 %
  • 06сентября
    Воскресенье
    +18°
    +31°
    Ясно и безоблачно
    ВремяПогодаТемператураВлажностьДавлениеВетер, м/сВероятность осадков
    05:00Ясно и безоблачно+21°C67 %752 мм0.1 м/с33 %
    11:00Ясно и безоблачно+29°C29 %752 мм1.3 м/с39 %
    17:00Ясно и безоблачно+29°C32 %751 мм3.0 м/с35 %
    23:00Ясно и безоблачно+22°C60 %752 мм1.5 м/с25 %
  • 07сентября
    Понедельник
    +17°
    +32°
    Ясно и безоблачно
    ВремяПогодаТемператураВлажностьДавлениеВетер, м/сВероятность осадков
    05:00Ясно и безоблачно+19°C70 %751 мм1.5 м/с20 %
    11:00Ясно и безоблачно+28°C39 %752 мм2.0 м/с26 %
    17:00Ясно и безоблачно+29°C36 %750 мм3.0 м/с25 %
    23:00Ясно и безоблачно+21°C66 %751 мм1.5 м/с16 %
Мы используем cookies
Соглашаюсь